Pagrindinis puslapis
METAR-TAF:

METAR-TAF

Oro uostai :

Ipohas, Malaizija

platuma: 04-34-09N, ilguma: 101-05-35E, Aukštis: 40 m

Dabartinis oras

Ataskaita buvo paskelbta 36 minutes, ne 08:00 UTC
Vėjas 3 kt nuo kintamojo kryptimis
Temperatūra 34°C
Drėgmė 50%
Slėgis 1009 hPa
Matomumas 10 km arba daugiau
Išsisklaidę debesys ne aukštis 2000 ft

METAR: WMKI 230800Z VRB03KT 9999 SCT020 34/22 Q1009

Laikas: 16:36 (08:36 UTC)

Prognozė

Ataskaita buvo paskelbta 3 valandos ir 36 minutes, ne 05:00 UTC
Prognozė galioja nuo 23 metu 06 UTC su 24 metu 06 UTC
Vėjas 5 kt nuo kintamojo kryptimis
Matomumas 10 km arba daugiau
Mažai debesys ne aukštis 2000 ft
Tapsmas
nuo 23 metu 12 UTC su 23 metu 14 UTC
Vėjas 5 kt iš Šiaurės Rytų
Matomumas: 9000 m
Mažai debesys ne aukštis 3000 ft

TAF: WMKI 230500Z 2306/2406 VRB05KT 9999 FEW020 BECMG 2312/2314 05005KT 9000 FEW030

Orai ataskaitas ir orų prognozės (METAR, TAF).

turimą stotys yra geltonos ir raudonos taškus žemėlapyje.

Perkelti pele per norėdami pamatyti stoties vardą.

Tada spustelėkite, norėdami matyti oro stebėjimo ir prognozės.

Norėdami pakeisti žemėlapį: spustelėkite ant žalios mygtukų su juodo kryžiaus žemyn,; žalią mygtuką su brūkšneliu, jei norite nutolinti; arba žalių rodyklių gretimoms žemėlapius.


METAR-TAF: